Portada
METAR-TAF:

METAR-TAF

Aeroports :

Tongatapu, Tonga

latitud: 21-14S, longitud: 175-09W, altitud: 38 m

Observació

L'informe es va fer fa 37 minuts, a les 04:00 UTC
Vent 9 kt del Est
Temperatura 24°C
Humitat 83%
Pressió 1016 hPa
Visibilitat 10 km o més
Escasses núvols a una alçada de 1600 ft

METAR: NFTF 220400Z 09009KT 9999 FEW016 24/21 Q1016

Hora: 17:37 (04:37 UTC)

Pronòstic

L'informe es va fer fa 5 hores i 32 minuts, a les 23:05 UTC
Pronòstic vàlid del 22 a les 00 UTC al 22 a les 24 UTC
Vent 9 kt del Est/Sud-Est
Visibilitat 10 km o més
Núvols disperses a una alçada de 1600 ft

TAF: NFTF 212305Z 2200/2224 12009KT 9999 SCT016

Observacions i pronòstics meteorològics de més de 4000 aeroports (METAR i TAF).

Les estacions disponibles són els punts grocs i vermells al mapa.

Posi el ratolí al punt desitjat per veure el nom de l'estació.

Feu clic per veure les observacions i els pronòstics meteorològics.

Per canviar el mapa: feu clic els botons verds amb una creu de color negre per apropar; al botó verd amb un guió per allunyar la imatge; o en les fletxes verdes per a mapes adjacents.


METAR-TAF: